createdAt,value
2022-11-22T00:01:24.462Z,10.07
2022-11-22T00:03:53.170Z,10.07
2022-11-22T00:06:21.625Z,10.09
2022-11-22T00:08:50.365Z,10.11
2022-11-22T00:11:18.803Z,10.18
2022-11-22T00:13:47.508Z,10.14
2022-11-22T00:16:17.276Z,10.12
2022-11-22T00:18:45.981Z,10.08
2022-11-22T00:21:14.384Z,10.16
2022-11-22T00:23:43.197Z,10.15
2022-11-22T00:26:12.573Z,10.20
2022-11-22T00:28:41.408Z,10.10
2022-11-22T00:31:09.849Z,10.21
2022-11-22T00:33:39.936Z,10.26
2022-11-22T00:36:08.650Z,10.15
2022-11-22T00:38:37.535Z,10.05
2022-11-22T00:41:06.104Z,9.88
2022-11-22T00:43:34.809Z,9.89
2022-11-22T00:46:03.337Z,9.76
2022-11-22T00:48:32.037Z,9.71
2022-11-22T00:51:01.861Z,9.59
2022-11-22T00:53:30.557Z,9.53
2022-11-22T00:55:59.063Z,9.46
2022-11-22T00:58:27.740Z,9.51
2022-11-22T01:00:56.989Z,9.44
2022-11-22T01:03:26.475Z,9.41
2022-11-22T01:05:54.877Z,9.34
2022-11-22T01:08:25.017Z,9.29
2022-11-22T01:10:57.360Z,9.27
2022-11-22T01:13:26.698Z,9.26
2022-11-22T01:15:55.527Z,9.29
2022-11-22T01:18:24.257Z,9.15
2022-11-22T01:20:52.775Z,9.16
2022-11-22T01:23:21.532Z,9.05
2022-11-22T01:25:51.308Z,9.00
2022-11-22T01:28:20.606Z,8.89
2022-11-22T01:30:51.304Z,8.90
2022-11-22T01:33:20.523Z,8.94
2022-11-22T01:35:49.099Z,8.89
2022-11-22T01:38:18.120Z,8.91
2022-11-22T01:40:46.658Z,8.90
2022-11-22T01:43:19.405Z,9.08
2022-11-22T01:45:51.365Z,9.04
2022-11-22T01:48:25.451Z,9.10
2022-11-22T01:50:59.258Z,9.03
2022-11-22T01:53:31.996Z,9.03
2022-11-22T01:56:03.146Z,8.91
2022-11-22T01:58:35.810Z,8.93
2022-11-22T02:01:04.775Z,8.87
2022-11-22T02:03:35.825Z,8.75
2022-11-22T02:06:05.865Z,8.76
2022-11-22T02:08:40.161Z,8.74
2022-11-22T02:11:10.995Z,8.68
2022-11-22T02:13:44.817Z,8.74
2022-11-22T02:16:13.811Z,8.59
2022-11-22T02:18:42.561Z,8.66
2022-11-22T02:21:11.292Z,8.69
2022-11-22T02:23:51.218Z,8.73
2022-11-22T02:26:22.059Z,8.68
2022-11-22T02:28:53.444Z,8.69
2022-11-22T02:31:39.758Z,8.76
2022-11-22T02:34:08.613Z,8.59
2022-11-22T02:36:42.736Z,8.64
2022-11-22T02:39:15.819Z,8.66
2022-11-22T02:41:46.055Z,8.60
2022-11-22T02:44:15.060Z,8.48
2022-11-22T02:46:50.591Z,8.61
2022-11-22T02:49:20.493Z,8.65
2022-11-22T02:51:49.330Z,8.67
2022-11-22T02:54:18.124Z,8.58
2022-11-22T02:56:48.426Z,8.55
2022-11-22T02:59:17.434Z,8.56
2022-11-22T03:01:47.326Z,8.56
2022-11-22T03:04:25.127Z,8.63
2022-11-22T03:06:56.111Z,8.57
2022-11-22T03:09:24.800Z,8.58
2022-11-22T03:11:55.477Z,8.55
2022-11-22T03:14:24.562Z,8.63
2022-11-22T03:16:53.132Z,8.72
2022-11-22T03:19:21.830Z,8.78
2022-11-22T03:21:50.829Z,8.81
2022-11-22T03:24:20.502Z,8.93
2022-11-22T03:26:50.298Z,8.96
2022-11-22T03:29:20.469Z,8.98
2022-11-22T03:31:48.972Z,9.08
2022-11-22T03:34:18.074Z,9.09
2022-11-22T03:36:46.472Z,9.07
2022-11-22T03:39:15.311Z,9.11
2022-11-22T03:41:43.783Z,9.15
2022-11-22T03:44:12.500Z,9.15
2022-11-22T03:46:42.415Z,9.08
2022-11-22T03:49:12.060Z,9.18
2022-11-22T03:51:40.411Z,9.18
2022-11-22T03:54:09.091Z,9.24
2022-11-22T03:56:37.511Z,9.17
2022-11-22T03:59:06.228Z,9.25
2022-11-22T04:01:34.753Z,9.20
2022-11-22T04:04:04.987Z,9.40
2022-11-22T04:06:33.478Z,9.49
2022-11-22T04:09:02.219Z,9.57
2022-11-22T04:11:30.665Z,9.58
2022-11-22T04:14:17.122Z,9.62
2022-11-22T04:16:45.530Z,9.63
2022-11-22T04:19:15.589Z,9.72
2022-11-22T04:21:42.988Z,9.71
2022-11-22T04:24:30.491Z,9.74
2022-11-22T04:26:59.744Z,9.82
2022-11-22T04:29:29.116Z,9.76
2022-11-22T04:32:15.600Z,9.65
2022-11-22T04:34:45.965Z,9.49
2022-11-22T04:37:14.426Z,9.52
2022-11-22T04:39:43.084Z,9.60
2022-11-22T04:42:28.963Z,9.65
2022-11-22T04:44:57.627Z,9.66
2022-11-22T04:47:47.569Z,9.64
2022-11-22T04:50:34.337Z,9.57
2022-11-22T04:53:02.679Z,9.42
2022-11-22T04:55:31.346Z,9.32
2022-11-22T04:58:00.508Z,9.24
2022-11-22T05:00:30.326Z,9.27
2022-11-22T05:02:59.545Z,9.12
2022-11-22T05:05:30.234Z,9.15
2022-11-22T05:08:00.091Z,9.13
2022-11-22T05:10:28.855Z,9.10
2022-11-22T05:12:57.360Z,9.08
2022-11-22T05:15:26.055Z,9.09
2022-11-22T05:17:54.426Z,9.21
2022-11-22T05:20:23.120Z,9.12
2022-11-22T05:23:10.386Z,9.18
2022-11-22T05:25:39.098Z,9.10
2022-11-22T05:28:07.545Z,9.02
2022-11-22T05:30:36.140Z,8.85
2022-11-22T05:33:06.115Z,8.81
2022-11-22T05:35:35.369Z,8.72
2022-11-22T05:38:05.172Z,8.77
2022-11-22T05:40:33.784Z,8.76
2022-11-22T05:43:02.186Z,8.69
2022-11-22T05:45:30.878Z,8.77
2022-11-22T05:47:59.161Z,8.73
2022-11-22T05:50:27.891Z,8.69
2022-11-22T05:52:56.477Z,8.72
2022-11-22T05:55:26.480Z,8.67
2022-11-22T05:57:55.043Z,8.57
2022-11-22T06:00:23.959Z,8.62
2022-11-22T06:02:52.365Z,8.50
2022-11-22T06:05:21.087Z,8.54
2022-11-22T06:07:49.600Z,8.56
2022-11-22T06:10:19.658Z,8.52
2022-11-22T06:12:49.408Z,8.66
2022-11-22T06:15:18.289Z,8.58
2022-11-22T06:17:46.697Z,8.61
2022-11-22T06:20:15.884Z,8.54
2022-11-22T06:22:44.270Z,8.42
2022-11-22T06:25:13.106Z,8.46
2022-11-22T06:27:41.445Z,8.52
2022-11-22T06:30:13.002Z,8.57
2022-11-22T06:32:41.442Z,8.55
2022-11-22T06:35:10.872Z,8.64
2022-11-22T06:37:39.190Z,8.69
2022-11-22T06:40:11.759Z,8.57
2022-11-22T06:42:40.153Z,8.66
2022-11-22T06:45:11.616Z,8.75
2022-11-22T06:47:40.626Z,8.78
2022-11-22T06:50:10.045Z,8.73
2022-11-22T06:52:38.412Z,8.59
2022-11-22T06:55:08.320Z,8.59
2022-11-22T06:57:36.770Z,8.56
2022-11-22T07:00:06.023Z,8.54
2022-11-22T07:02:35.861Z,8.56
2022-11-22T07:05:25.998Z,8.69
2022-11-22T07:07:53.613Z,8.84
2022-11-22T07:10:23.756Z,8.89
2022-11-22T07:12:52.996Z,8.89
2022-11-22T07:15:21.663Z,8.80
2022-11-22T07:17:51.349Z,9.03
2022-11-22T07:20:20.038Z,9.22
2022-11-22T07:22:49.083Z,9.35
2022-11-22T07:25:17.795Z,9.41
2022-11-22T07:27:46.184Z,9.48
2022-11-22T07:30:15.872Z,9.65
2022-11-22T07:32:48.284Z,9.64
2022-11-22T07:35:18.532Z,9.76
2022-11-22T07:37:48.888Z,9.90
2022-11-22T07:40:18.143Z,9.86
2022-11-22T07:42:46.571Z,9.86
2022-11-22T07:45:15.580Z,9.92
2022-11-22T07:47:44.069Z,10.02
2022-11-22T07:50:13.217Z,10.00
2022-11-22T07:52:42.937Z,10.14
2022-11-22T07:55:14.292Z,10.11
2022-11-22T07:57:43.397Z,10.01
2022-11-22T08:00:13.741Z,10.07
2022-11-22T08:02:42.121Z,10.01
2022-11-22T08:05:11.003Z,10.06
2022-11-22T08:07:39.506Z,10.25
2022-11-22T08:10:10.959Z,10.21
2022-11-22T08:12:39.320Z,10.37
2022-11-22T08:15:09.233Z,10.27
2022-11-22T08:17:38.380Z,10.33
2022-11-22T08:20:09.784Z,10.41
2022-11-22T08:22:38.937Z,10.57
2022-11-22T08:25:12.703Z,10.63
2022-11-22T08:27:41.794Z,10.72
2022-11-22T08:30:11.824Z,10.72
2022-11-22T08:32:40.396Z,10.75
2022-11-22T08:35:09.897Z,10.92
2022-11-22T08:37:38.244Z,11.01
2022-11-22T08:40:10.000Z,11.03
2022-11-22T08:42:38.421Z,11.20
2022-11-22T08:45:08.179Z,11.26
2022-11-22T08:47:36.570Z,11.34
2022-11-22T08:50:06.007Z,11.49
2022-11-22T08:52:35.788Z,11.51
2022-11-22T08:55:04.834Z,11.59
2022-11-22T08:57:34.876Z,11.67
2022-11-22T09:00:04.808Z,11.67
2022-11-22T09:02:33.408Z,11.81
2022-11-22T09:05:02.372Z,11.95
2022-11-22T09:10:19.568Z,12.19
2022-11-22T09:12:49.424Z,12.21
2022-11-22T09:15:18.527Z,12.28
2022-11-22T09:17:47.024Z,12.32
2022-11-22T09:20:15.837Z,12.34
2022-11-22T09:22:44.234Z,12.53
2022-11-22T09:25:12.912Z,12.68
2022-11-22T09:27:41.223Z,12.82
2022-11-22T09:30:12.326Z,12.81
2022-11-22T09:32:41.002Z,12.79
2022-11-22T09:35:10.110Z,12.85
2022-11-22T09:37:38.593Z,12.83
2022-11-22T09:40:08.811Z,12.75
2022-11-22T09:42:56.153Z,12.75
2022-11-22T09:46:02.921Z,12.81
2022-11-22T09:48:49.222Z,12.72
2022-11-22T09:51:22.451Z,12.41
2022-11-22T09:53:56.411Z,12.56
2022-11-22T09:56:27.594Z,12.57
2022-11-22T09:59:00.521Z,12.64
2022-11-22T10:01:35.358Z,12.64
2022-11-22T10:04:09.640Z,12.57
2022-11-22T10:06:41.977Z,12.49
2022-11-22T10:09:27.791Z,12.46
2022-11-22T10:12:03.556Z,12.37
2022-11-22T10:14:42.035Z,12.56
2022-11-22T10:17:25.299Z,12.56
2022-11-22T10:19:59.914Z,12.60
2022-11-22T10:22:31.325Z,12.50
2022-11-22T10:25:00.826Z,12.44
2022-11-22T10:27:33.031Z,12.54
2022-11-22T10:30:06.297Z,12.52
2022-11-22T10:32:42.006Z,12.54
2022-11-22T10:35:30.813Z,12.36
2022-11-22T10:38:21.572Z,12.43
2022-11-22T10:40:59.899Z,12.32
2022-11-22T10:43:38.837Z,12.31
2022-11-22T10:46:17.135Z,12.23
2022-11-22T10:48:54.063Z,12.17
2022-11-22T10:51:30.154Z,12.38
2022-11-22T10:54:12.327Z,12.36
2022-11-22T10:56:50.217Z,12.27
2022-11-22T10:59:37.379Z,12.39
2022-11-22T11:02:30.723Z,12.33
2022-11-22T11:05:05.236Z,12.33
2022-11-22T11:07:33.870Z,12.26
2022-11-22T11:10:18.204Z,12.49
2022-11-22T11:12:58.239Z,12.51
2022-11-22T11:15:36.251Z,12.59
2022-11-22T11:18:08.823Z,12.54
2022-11-22T11:20:43.632Z,12.49
2022-11-22T11:23:15.197Z,12.40
2022-11-22T11:25:46.707Z,12.46
2022-11-22T11:28:20.442Z,12.53
2022-11-22T11:30:53.632Z,12.44
2022-11-22T11:33:32.898Z,12.63
2022-11-22T11:36:06.977Z,12.74
2022-11-22T11:38:37.727Z,12.59
2022-11-22T11:41:22.450Z,12.71
2022-11-22T11:43:52.305Z,12.48
2022-11-22T11:46:23.015Z,12.42
2022-11-22T11:48:53.378Z,12.31
2022-11-22T11:51:27.435Z,12.42
2022-11-22T11:54:00.190Z,12.34
2022-11-22T11:56:33.960Z,12.36
2022-11-22T11:59:09.202Z,12.58
2022-11-22T12:01:39.382Z,12.67
2022-11-22T12:04:17.637Z,12.53
2022-11-22T12:07:00.067Z,12.38
2022-11-22T12:09:35.234Z,12.47
2022-11-22T12:12:12.544Z,12.55
2022-11-22T12:15:09.834Z,12.46
2022-11-22T12:17:42.670Z,12.40
2022-11-22T12:20:18.579Z,12.55
2022-11-22T12:23:00.636Z,12.63
2022-11-22T12:25:35.055Z,12.70
2022-11-22T12:28:15.371Z,12.68
2022-11-22T12:30:46.463Z,12.75
2022-11-22T12:33:21.791Z,12.92
2022-11-22T12:35:54.258Z,12.75
2022-11-22T12:38:30.141Z,12.75
2022-11-22T12:41:02.107Z,12.76
2022-11-22T12:43:37.505Z,12.82
2022-11-22T12:46:11.131Z,12.62
2022-11-22T12:48:49.003Z,12.75
2022-11-22T12:51:24.434Z,12.72
2022-11-22T12:53:58.758Z,12.72
2022-11-22T12:56:33.634Z,12.76
2022-11-22T12:59:10.672Z,12.93
2022-11-22T13:01:44.894Z,13.00
2022-11-22T13:04:22.160Z,12.85
2022-11-22T13:06:59.124Z,12.91
2022-11-22T13:09:33.481Z,12.79
2022-11-22T13:12:06.642Z,12.97
2022-11-22T13:14:39.077Z,13.02
2022-11-22T13:17:09.068Z,12.95
2022-11-22T13:19:47.051Z,12.91
2022-11-22T13:22:27.435Z,13.05
2022-11-22T13:25:13.894Z,13.11
2022-11-22T13:27:45.122Z,13.11
2022-11-22T13:30:20.600Z,13.13
2022-11-22T13:32:53.213Z,13.17
2022-11-22T13:35:29.368Z,13.15
2022-11-22T13:38:00.044Z,13.12
2022-11-22T13:40:34.989Z,13.19
2022-11-22T13:43:50.449Z,13.20
2022-11-22T13:46:51.776Z,13.09
2022-11-22T13:49:46.567Z,12.96
2022-11-22T13:52:52.246Z,13.01
2022-11-22T13:55:40.487Z,13.06
2022-11-22T13:58:54.592Z,12.98
2022-11-22T14:01:57.237Z,12.79
2022-11-22T14:04:41.617Z,12.81
2022-11-22T14:07:35.357Z,12.76
2022-11-22T14:10:25.267Z,12.75
2022-11-22T14:13:15.999Z,12.67
2022-11-22T14:16:04.277Z,12.68
2022-11-22T14:18:46.938Z,12.77
2022-11-22T14:21:23.601Z,12.75
2022-11-22T14:24:07.491Z,12.60
2022-11-22T14:26:53.769Z,12.56
2022-11-22T14:30:04.447Z,12.39
2022-11-22T14:32:50.541Z,12.43
2022-11-22T14:35:29.613Z,12.38
2022-11-22T14:38:18.881Z,12.27
2022-11-22T14:40:48.106Z,12.29
2022-11-22T14:43:29.206Z,12.50
2022-11-22T14:46:03.103Z,12.40
2022-11-22T14:48:37.666Z,12.26
2022-11-22T14:51:16.797Z,12.21
2022-11-22T14:53:50.197Z,12.21
2022-11-22T14:56:23.938Z,12.11
2022-11-22T14:58:59.350Z,12.12
2022-11-22T15:02:15.755Z,12.12
2022-11-22T15:09:15.081Z,12.02
2022-11-22T15:09:18.204Z,12.02
2022-11-22T15:11:38.741Z,12.13
2022-11-22T15:14:38.683Z,12.23
2022-11-22T15:57:34.745Z,11.24
2022-11-22T16:00:03.738Z,11.35
2022-11-22T16:02:48.294Z,11.15
2022-11-22T16:06:04.594Z,11.24
2022-11-22T16:08:16.399Z,11.18
2022-11-22T16:10:50.816Z,11.19
2022-11-22T16:13:28.485Z,11.20
2022-11-22T16:16:20.392Z,11.09
2022-11-22T16:18:50.779Z,10.93
2022-11-22T16:21:27.349Z,10.88
2022-11-22T16:24:19.370Z,10.76
2022-11-22T16:26:58.101Z,10.81
2022-11-22T16:29:32.107Z,10.65
2022-11-22T16:32:03.061Z,10.64
2022-11-22T16:34:31.858Z,10.60
2022-11-22T16:37:00.387Z,10.50
2022-11-22T16:39:31.433Z,10.50
2022-11-22T16:42:00.087Z,10.67
2022-11-22T16:44:28.882Z,10.60
2022-11-22T16:46:57.355Z,10.46
2022-11-22T16:49:26.270Z,10.43
2022-11-22T16:51:54.944Z,10.45
2022-11-22T16:54:24.393Z,10.50
2022-11-22T16:56:54.284Z,10.52
2022-11-22T16:59:23.063Z,10.38
2022-11-22T17:01:51.674Z,10.32
2022-11-22T17:04:23.848Z,10.26
2022-11-22T17:06:53.481Z,10.24
2022-11-22T17:09:22.552Z,10.14
2022-11-22T17:11:51.427Z,10.13
2022-11-22T17:14:21.510Z,10.20
2022-11-22T17:16:49.952Z,10.22
2022-11-22T17:19:45.722Z,10.36
2022-11-22T17:22:07.366Z,10.22
2022-11-22T17:24:36.292Z,10.10
2022-11-22T17:27:04.835Z,10.35
2022-11-22T17:29:49.809Z,10.30
2022-11-22T17:32:19.509Z,10.19
2022-11-22T17:34:48.325Z,10.23
2022-11-22T17:37:16.834Z,10.19
2022-11-22T17:39:46.475Z,10.20
2022-11-22T17:42:15.385Z,10.28
2022-11-22T17:44:45.382Z,10.47
2022-11-22T17:47:13.749Z,10.42
2022-11-22T17:49:42.582Z,10.43
2022-11-22T17:52:10.979Z,10.42
2022-11-22T17:54:39.957Z,10.39
2022-11-22T17:57:08.389Z,10.50
2022-11-22T17:59:37.257Z,10.55
2022-11-22T18:02:07.452Z,10.54
2022-11-22T18:04:36.287Z,10.39
2022-11-22T18:07:04.776Z,10.26
2022-11-22T18:09:34.734Z,10.27
2022-11-22T18:12:03.536Z,10.21
2022-11-22T18:14:32.422Z,10.25
2022-11-22T18:17:00.898Z,10.22
2022-11-22T18:19:31.487Z,10.30
2022-11-22T18:22:00.123Z,10.28
2022-11-22T18:24:28.987Z,10.37
2022-11-22T18:26:57.434Z,10.33
2022-11-22T18:29:41.671Z,10.48
2022-11-22T18:32:11.465Z,10.36
2022-11-22T18:34:42.644Z,10.33
2022-11-22T18:37:11.411Z,10.31
2022-11-22T18:39:40.565Z,10.25
2022-11-22T18:42:13.141Z,10.31
2022-11-22T18:44:42.386Z,10.21
2022-11-22T18:47:11.222Z,10.32
2022-11-22T18:49:41.370Z,10.31
2022-11-22T18:52:12.009Z,10.34
2022-11-22T18:54:43.529Z,10.36
2022-11-22T18:57:11.894Z,10.46
2022-11-22T18:59:40.647Z,10.46
2022-11-22T19:02:09.201Z,10.34
2022-11-22T19:04:37.956Z,10.38
2022-11-22T19:07:07.880Z,10.52
2022-11-22T19:09:36.900Z,10.46
2022-11-22T19:12:05.878Z,10.49
2022-11-22T19:14:34.875Z,10.54
2022-11-22T19:17:03.329Z,10.57
2022-11-22T19:19:32.408Z,10.52
2022-11-22T19:22:01.566Z,10.51
2022-11-22T19:24:33.148Z,10.60
2022-11-22T19:27:01.879Z,10.52
2022-11-22T19:29:31.259Z,10.71
2022-11-22T19:32:00.046Z,10.73
2022-11-22T19:34:30.256Z,10.68
2022-11-22T19:37:00.323Z,10.67
2022-11-22T19:39:29.353Z,10.82
2022-11-22T19:41:59.456Z,10.76
2022-11-22T19:44:28.282Z,10.99
2022-11-22T19:46:56.766Z,11.05
2022-11-22T19:49:25.626Z,10.90
2022-11-22T19:51:54.045Z,10.90
2022-11-22T19:54:22.925Z,10.99
2022-11-22T19:56:51.493Z,11.02
2022-11-22T19:59:21.745Z,11.15
2022-11-22T20:01:50.380Z,11.10
2022-11-22T20:04:19.177Z,11.15
2022-11-22T20:06:50.301Z,10.95
2022-11-22T20:09:19.410Z,10.90
2022-11-22T20:11:47.898Z,10.92
2022-11-22T20:14:17.127Z,10.96
2022-11-22T20:16:47.027Z,11.07
2022-11-22T20:19:15.828Z,11.10
2022-11-22T20:21:46.049Z,11.09
2022-11-22T20:24:15.536Z,11.02
2022-11-22T20:26:44.151Z,11.04
2022-11-22T20:29:15.248Z,11.09
2022-11-22T20:31:43.909Z,11.18
2022-11-22T20:34:15.751Z,11.10
2022-11-22T20:36:44.450Z,11.00
2022-11-22T20:39:13.275Z,11.15
2022-11-22T20:41:41.794Z,11.15
2022-11-22T20:44:13.645Z,11.28
2022-11-22T20:46:42.556Z,11.40
2022-11-22T20:49:11.329Z,11.32
2022-11-22T20:51:42.834Z,11.43
2022-11-22T20:54:11.618Z,11.44
2022-11-22T20:56:40.075Z,11.46
2022-11-22T20:59:09.175Z,11.61
2022-11-22T21:01:38.276Z,11.73
2022-11-22T21:04:07.576Z,11.63
2022-11-22T21:06:36.304Z,11.56
2022-11-22T21:09:06.433Z,11.48
2022-11-22T21:11:35.120Z,11.46
2022-11-22T21:14:03.906Z,11.52
2022-11-22T21:16:32.591Z,11.54
2022-11-22T21:19:04.919Z,11.58
2022-11-22T21:21:35.819Z,11.68
2022-11-22T21:24:08.399Z,11.69
2022-11-22T21:26:36.924Z,11.55
2022-11-22T21:29:15.955Z,11.62
2022-11-22T21:31:45.026Z,11.63
2022-11-22T21:34:13.864Z,11.72
2022-11-22T21:36:42.274Z,11.70
2022-11-22T21:39:12.347Z,11.65
2022-11-22T21:41:41.540Z,11.67
2022-11-22T21:44:11.733Z,11.62
2022-11-22T21:46:40.312Z,11.64
2022-11-22T21:49:09.121Z,11.73
2022-11-22T21:51:37.467Z,11.64
2022-11-22T21:54:06.704Z,11.66
2022-11-22T21:56:36.931Z,11.66
2022-11-22T21:59:05.854Z,11.66
2022-11-22T22:01:34.850Z,11.62
2022-11-22T22:04:03.654Z,11.63
2022-11-22T22:06:32.338Z,11.47
2022-11-22T22:09:01.543Z,11.55
2022-11-22T22:11:30.025Z,11.59
2022-11-22T22:14:00.135Z,11.59
2022-11-22T22:16:28.769Z,11.58
2022-11-22T22:18:57.636Z,11.59
2022-11-22T22:21:26.144Z,11.64
2022-11-22T22:23:55.199Z,11.62
2022-11-22T22:26:24.134Z,11.69
2022-11-22T22:28:54.121Z,11.60
2022-11-22T22:31:24.932Z,11.49
2022-11-22T22:33:56.036Z,11.55
2022-11-22T22:36:26.031Z,11.51
2022-11-22T22:38:55.300Z,11.44
2022-11-22T22:41:24.019Z,11.44
2022-11-22T22:43:53.196Z,11.54
2022-11-22T22:46:24.807Z,11.52
2022-11-22T22:48:56.179Z,11.52
2022-11-22T22:51:31.888Z,11.57
2022-11-22T22:54:02.176Z,11.61
2022-11-22T22:56:31.802Z,11.61
2022-11-22T22:59:01.680Z,11.65
2022-11-22T23:01:32.619Z,11.76
2022-11-22T23:04:03.343Z,11.68
2022-11-22T23:06:33.980Z,11.59
2022-11-22T23:09:04.882Z,11.65
2022-11-22T23:11:52.251Z,11.67
2022-11-22T23:14:23.128Z,11.55
2022-11-22T23:16:57.655Z,11.62
2022-11-22T23:19:27.364Z,11.55
2022-11-22T23:21:56.252Z,11.63
2022-11-22T23:24:25.060Z,11.56
2022-11-22T23:26:53.606Z,11.59
2022-11-22T23:29:22.386Z,11.62
2022-11-22T23:31:52.688Z,11.69
2022-11-22T23:34:21.713Z,11.88
2022-11-22T23:36:50.141Z,11.85
2022-11-22T23:39:18.896Z,11.90
2022-11-22T23:41:47.252Z,11.96
2022-11-22T23:44:15.954Z,11.96
2022-11-22T23:46:44.383Z,11.95
2022-11-22T23:49:14.393Z,12.05
2022-11-22T23:51:42.881Z,12.03
2022-11-22T23:54:11.812Z,11.82
2022-11-22T23:56:40.352Z,11.76
2022-11-22T23:59:10.566Z,11.75
